Altair, Texas
Current Conditions -  °F | °C
As of 11:35 PM on Monday 26 Jan 2015 (Local Time) from K66R Reporting Station
Clear Clear  
Wind Chill: 12°   Ceiling: Unl
Heat Index: 12°   Visibility: 10mi
Dew Point:   Wind: 5mph
Humidity: 63%   Direction: 220°SW
Pressure: 30.17"   Gusts: NA
Location:  29.57°N, 96.45°W
Report Text: K66R 270535Z AUTO 22004KT 10SM CLR 12/06 A3017 RMK AO2 T01230055
Loading
Personal Weather Stations






























Interactive Weather Map New forecast layout! Learn more

10-Day Weather Forecast

Advertisements
Track Severe Weather on mobile